createdAt,value
2022-11-07T00:00:37.327Z,1.50
2022-11-07T00:03:04.341Z,1.50
2022-11-07T00:05:31.178Z,1.48
2022-11-07T00:07:58.016Z,1.45
2022-11-07T00:10:24.977Z,1.48
2022-11-07T00:12:51.756Z,1.50
2022-11-07T00:15:19.050Z,1.40
2022-11-07T00:17:45.820Z,1.30
2022-11-07T00:20:12.616Z,1.63
2022-11-07T00:22:39.457Z,1.60
2022-11-07T00:25:09.319Z,1.60
2022-11-07T00:27:36.292Z,1.85
2022-11-07T00:30:03.825Z,1.90
2022-11-07T00:32:30.593Z,1.80
2022-11-07T00:34:57.399Z,2.10
2022-11-07T00:37:24.176Z,1.85
2022-11-07T00:39:51.040Z,1.92
2022-11-07T00:42:17.732Z,1.98
2022-11-07T00:44:44.432Z,2.00
2022-11-07T00:47:11.112Z,1.90
2022-11-07T00:49:37.958Z,2.10
2022-11-07T00:52:04.957Z,1.92
2022-11-07T00:54:31.676Z,4.22
2022-11-07T00:56:58.439Z,2.10
2022-11-07T00:59:26.984Z,1.90
2022-11-07T01:01:53.954Z,2.40
2022-11-07T01:04:39.505Z,2.10
2022-11-07T01:07:07.026Z,1.90
2022-11-07T01:09:33.731Z,1.80
2022-11-07T01:12:00.531Z,2.08
2022-11-07T01:14:27.376Z,1.90
2022-11-07T01:16:54.361Z,1.70
2022-11-07T01:19:21.277Z,1.73
2022-11-07T01:21:48.390Z,1.80
2022-11-07T01:24:16.427Z,1.60
2022-11-07T01:26:47.809Z,1.58
2022-11-07T01:29:16.041Z,1.88
2022-11-07T01:31:42.917Z,1.67
2022-11-07T01:34:09.697Z,1.88
2022-11-07T01:36:36.945Z,1.88
2022-11-07T01:39:04.458Z,1.60
2022-11-07T01:41:34.450Z,1.73
2022-11-07T01:44:06.967Z,1.77
2022-11-07T01:46:42.092Z,1.50
2022-11-07T01:49:20.208Z,1.80
2022-11-07T01:51:53.060Z,1.60
2022-11-07T01:54:24.708Z,1.60
2022-11-07T01:56:51.919Z,1.75
2022-11-07T01:59:22.647Z,1.80
2022-11-07T02:01:50.321Z,1.60
2022-11-07T02:04:20.170Z,1.55
2022-11-07T02:06:51.411Z,1.58
2022-11-07T02:09:18.162Z,1.55
2022-11-07T02:11:44.913Z,1.65
2022-11-07T02:14:16.221Z,1.42
2022-11-07T02:16:43.596Z,1.40
2022-11-07T02:19:42.370Z,1.40
2022-11-07T02:22:42.639Z,1.40
2022-11-07T02:25:13.655Z,1.70
2022-11-07T02:27:42.458Z,1.40
2022-11-07T02:30:16.416Z,1.50
2022-11-07T02:32:43.916Z,1.50
2022-11-07T02:35:33.034Z,1.45
2022-11-07T02:38:00.251Z,1.67
2022-11-07T02:40:29.624Z,1.30
2022-11-07T02:42:58.490Z,1.42
2022-11-07T02:45:29.625Z,1.50
2022-11-07T02:47:56.503Z,1.55
2022-11-07T02:50:23.291Z,1.58
2022-11-07T02:52:50.208Z,1.45
2022-11-07T02:55:17.291Z,1.60
2022-11-07T02:57:44.108Z,1.40
2022-11-07T03:00:13.001Z,1.40
2022-11-07T03:02:40.935Z,1.40
2022-11-07T03:05:08.011Z,1.48
2022-11-07T03:07:34.832Z,1.38
2022-11-07T03:10:01.549Z,1.20
2022-11-07T03:12:28.302Z,1.23
2022-11-07T03:14:55.133Z,1.17
2022-11-07T03:17:26.682Z,1.30
2022-11-07T03:19:56.914Z,1.20
2022-11-07T03:22:23.730Z,1.42
2022-11-07T03:24:50.410Z,1.20
2022-11-07T03:27:17.442Z,1.40
2022-11-07T03:29:44.171Z,1.30
2022-11-07T03:32:11.566Z,1.30
2022-11-07T03:34:38.358Z,1.40
2022-11-07T03:37:05.605Z,1.23
2022-11-07T03:39:32.424Z,1.40
2022-11-07T03:41:59.250Z,1.50
2022-11-07T03:44:26.053Z,1.50
2022-11-07T03:46:52.948Z,1.70
2022-11-07T03:49:19.735Z,1.80
2022-11-07T03:51:46.444Z,1.80
2022-11-07T03:54:13.183Z,1.80
2022-11-07T03:56:40.093Z,2.15
2022-11-07T03:59:06.853Z,2.13
2022-11-07T04:01:34.001Z,2.22
2022-11-07T04:04:00.902Z,2.20
2022-11-07T04:06:27.502Z,2.15
2022-11-07T04:08:54.206Z,1.83
2022-11-07T04:11:39.352Z,2.35
2022-11-07T04:14:24.555Z,2.40
2022-11-07T04:17:10.031Z,2.90
2022-11-07T04:19:36.605Z,3.22
2022-11-07T04:22:03.329Z,2.80
2022-11-07T04:24:29.933Z,2.83
2022-11-07T04:27:14.902Z,2.60
2022-11-07T04:29:41.683Z,2.67
2022-11-07T04:32:08.239Z,2.75
2022-11-07T04:34:35.041Z,3.00
2022-11-07T04:37:01.887Z,3.75
2022-11-07T04:39:28.882Z,3.95
2022-11-07T04:41:56.505Z,3.72
2022-11-07T04:44:23.126Z,4.82
2022-11-07T04:46:49.827Z,4.50
2022-11-07T04:49:16.469Z,4.45
2022-11-07T04:51:44.144Z,4.75
2022-11-07T04:54:14.652Z,4.63
2022-11-07T04:56:41.711Z,4.95
2022-11-07T04:59:08.570Z,4.35
2022-11-07T05:01:39.616Z,4.53
2022-11-07T05:04:06.585Z,4.45
2022-11-07T05:06:37.724Z,4.07
2022-11-07T05:09:04.584Z,4.20
2022-11-07T05:11:31.165Z,4.20
2022-11-07T05:13:57.791Z,4.45
2022-11-07T05:16:24.424Z,4.20
2022-11-07T05:18:51.077Z,4.03
2022-11-07T05:21:17.666Z,4.30
2022-11-07T05:23:44.258Z,4.07
2022-11-07T05:26:10.950Z,4.13
2022-11-07T05:28:39.799Z,3.95
2022-11-07T05:31:08.459Z,4.00
2022-11-07T05:33:35.810Z,3.20
2022-11-07T05:36:17.297Z,4.00
2022-11-07T05:38:46.339Z,3.90
2022-11-07T05:41:14.485Z,4.03
2022-11-07T05:43:41.379Z,3.80
2022-11-07T05:46:08.425Z,3.72
2022-11-07T05:48:35.700Z,3.47
2022-11-07T05:51:02.490Z,3.33
2022-11-07T05:53:29.312Z,3.47
2022-11-07T05:55:57.182Z,3.38
2022-11-07T05:58:24.242Z,3.55
2022-11-07T06:00:51.394Z,3.50
2022-11-07T06:03:20.512Z,3.33
2022-11-07T06:05:47.617Z,3.50
2022-11-07T06:08:14.894Z,3.40
2022-11-07T06:10:42.824Z,2.72
2022-11-07T06:13:14.772Z,3.20
2022-11-07T06:15:43.360Z,2.80
2022-11-07T06:18:17.241Z,2.70
2022-11-07T06:20:44.508Z,2.30
2022-11-07T06:23:11.427Z,2.20
2022-11-07T06:25:38.360Z,2.63
2022-11-07T06:28:10.026Z,2.58
2022-11-07T06:30:37.248Z,2.80
2022-11-07T06:33:06.053Z,2.78
2022-11-07T06:35:33.171Z,2.80
2022-11-07T06:38:07.611Z,2.83
2022-11-07T06:40:34.746Z,2.70
2022-11-07T06:43:14.655Z,2.45
2022-11-07T06:45:42.683Z,2.53
2022-11-07T06:48:09.919Z,2.28
2022-11-07T06:50:36.878Z,2.60
2022-11-07T06:53:05.617Z,2.25
2022-11-07T06:55:34.807Z,2.38
2022-11-07T06:58:01.904Z,2.20
2022-11-07T07:00:30.528Z,2.70
2022-11-07T07:02:59.040Z,2.78
2022-11-07T07:05:26.767Z,2.60
2022-11-07T07:07:56.713Z,2.33
2022-11-07T07:10:25.726Z,2.60
2022-11-07T07:12:53.971Z,2.67
2022-11-07T07:15:20.980Z,2.65
2022-11-07T07:17:47.955Z,2.53
2022-11-07T07:20:14.810Z,2.70
2022-11-07T07:22:41.452Z,3.08
2022-11-07T07:25:09.627Z,2.80
2022-11-07T07:27:36.682Z,3.72
2022-11-07T07:30:06.327Z,3.58
2022-11-07T07:32:36.993Z,3.50
2022-11-07T07:35:31.780Z,3.95
2022-11-07T07:38:31.707Z,4.30
2022-11-07T07:41:57.655Z,4.63
2022-11-07T07:44:24.758Z,5.03
2022-11-07T07:46:51.357Z,6.72
2022-11-07T07:49:21.073Z,6.63
2022-11-07T07:51:47.798Z,7.30
2022-11-07T07:54:14.757Z,7.60
2022-11-07T07:56:41.385Z,8.02
2022-11-07T07:59:08.057Z,7.97
2022-11-07T08:01:34.915Z,8.75
2022-11-07T08:04:02.937Z,8.02
2022-11-07T08:06:30.502Z,7.32
2022-11-07T08:08:57.982Z,6.68
2022-11-07T08:11:24.657Z,7.18
2022-11-07T08:13:51.357Z,6.57
2022-11-07T08:16:29.656Z,6.50
2022-11-07T08:18:56.443Z,6.85
2022-11-07T08:21:23.080Z,6.03
2022-11-07T08:23:55.214Z,6.50
2022-11-07T08:26:22.003Z,6.55
2022-11-07T08:28:48.630Z,6.65
2022-11-07T08:31:15.358Z,6.47
2022-11-07T08:33:45.615Z,6.65
2022-11-07T08:36:12.466Z,6.13
2022-11-07T08:38:39.102Z,6.50
2022-11-07T08:41:05.943Z,6.60
2022-11-07T08:43:32.725Z,6.90
2022-11-07T08:45:59.751Z,6.57
2022-11-07T08:48:26.637Z,6.80
2022-11-07T08:50:59.068Z,6.95
2022-11-07T08:53:26.811Z,6.75
2022-11-07T08:56:00.899Z,6.38
2022-11-07T08:58:30.161Z,6.90
2022-11-07T09:00:57.255Z,6.10
2022-11-07T09:03:46.165Z,6.07
2022-11-07T09:06:24.444Z,6.10
2022-11-07T09:08:51.275Z,6.15
2022-11-07T09:11:19.174Z,6.07
2022-11-07T09:13:53.064Z,6.00
2022-11-07T09:16:20.583Z,5.75
2022-11-07T09:18:48.809Z,5.85
2022-11-07T09:21:21.706Z,5.50
2022-11-07T09:23:49.871Z,5.47
2022-11-07T09:26:16.972Z,5.78
2022-11-07T09:28:47.038Z,6.07
2022-11-07T09:31:17.758Z,5.40
2022-11-07T09:33:44.391Z,5.30
2022-11-07T09:36:12.600Z,5.97
2022-11-07T09:38:39.472Z,4.90
2022-11-07T09:41:11.300Z,5.22
2022-11-07T09:44:17.781Z,4.53
2022-11-07T09:46:47.257Z,5.13
2022-11-07T09:49:21.925Z,4.43
2022-11-07T09:52:05.217Z,4.28
2022-11-07T09:54:37.772Z,4.25
2022-11-07T09:57:04.807Z,4.30
2022-11-07T10:00:00.485Z,4.18
2022-11-07T10:02:32.788Z,3.78
2022-11-07T10:05:02.726Z,3.70
2022-11-07T10:07:50.738Z,3.50
2022-11-07T10:10:20.168Z,3.80
2022-11-07T10:13:04.899Z,3.42
2022-11-07T10:16:00.218Z,3.58
2022-11-07T10:18:53.623Z,3.60
2022-11-07T10:21:41.910Z,3.88
2022-11-07T10:24:35.278Z,3.40
2022-11-07T10:27:02.259Z,3.60
2022-11-07T10:29:44.695Z,3.40
2022-11-07T10:32:31.779Z,3.08
2022-11-07T10:35:13.471Z,3.30
2022-11-07T10:37:40.158Z,3.38
2022-11-07T10:40:17.098Z,3.60
2022-11-07T10:42:46.021Z,3.55
2022-11-07T10:45:17.440Z,3.67
2022-11-07T10:47:59.614Z,4.10
2022-11-07T10:50:26.974Z,3.17
2022-11-07T10:53:05.567Z,3.10
2022-11-07T10:55:43.512Z,2.65
2022-11-07T10:58:20.154Z,2.78
2022-11-07T11:01:09.195Z,2.60
2022-11-07T11:03:47.384Z,3.10
2022-11-07T11:06:28.093Z,4.90
2022-11-07T11:11:21.624Z,4.20
2022-11-07T11:13:49.022Z,4.13
2022-11-07T11:16:29.937Z,4.80
2022-11-07T11:18:59.887Z,4.72
2022-11-07T11:21:27.134Z,5.10
2022-11-07T11:23:54.973Z,5.50
2022-11-07T11:26:35.445Z,5.30
2022-11-07T11:29:14.969Z,5.20
2022-11-07T11:31:46.094Z,4.53
2022-11-07T11:34:20.429Z,4.28
2022-11-07T11:37:02.218Z,4.20
2022-11-07T11:39:37.676Z,4.38
2022-11-07T11:42:05.094Z,4.20
2022-11-07T11:44:38.201Z,4.88
2022-11-07T11:47:14.301Z,4.90
2022-11-07T11:49:50.400Z,4.90
2022-11-07T11:52:21.113Z,5.82
2022-11-07T11:54:51.304Z,5.95
2022-11-07T11:57:24.097Z,7.47
2022-11-07T12:00:00.138Z,7.85
2022-11-07T12:02:35.937Z,7.28
2022-11-07T12:05:11.793Z,7.65
2022-11-07T12:08:03.261Z,8.23
2022-11-07T12:10:41.480Z,7.90
2022-11-07T12:13:26.639Z,7.50
2022-11-07T12:15:56.289Z,6.88
2022-11-07T12:18:46.274Z,7.22
2022-11-07T12:21:24.835Z,7.30
2022-11-07T12:24:23.139Z,7.32
2022-11-07T12:27:08.674Z,7.90
2022-11-07T12:29:59.793Z,8.20
2022-11-07T12:32:36.530Z,8.23
2022-11-07T12:35:08.879Z,8.43
2022-11-07T12:37:58.551Z,9.43
2022-11-07T12:40:57.448Z,9.32
2022-11-07T12:43:29.879Z,9.35
2022-11-07T12:46:37.624Z,9.10
2022-11-07T12:49:58.504Z,8.95
2022-11-07T12:52:49.767Z,9.32
2022-11-07T12:55:22.583Z,9.60
2022-11-07T12:57:55.090Z,10.02
2022-11-07T13:00:29.903Z,10.68
2022-11-07T13:03:33.146Z,10.65
2022-11-07T13:06:05.834Z,10.23
2022-11-07T13:08:42.567Z,10.55
2022-11-07T13:11:30.957Z,10.68
2022-11-07T13:14:24.289Z,10.88
2022-11-07T13:17:12.510Z,11.10
2022-11-07T13:19:42.970Z,10.70
2022-11-07T13:22:15.819Z,12.70
2022-11-07T13:24:54.911Z,12.15
2022-11-07T13:27:24.962Z,12.53
2022-11-07T13:29:52.246Z,12.63
2022-11-07T13:32:18.962Z,12.93
2022-11-07T13:34:59.124Z,13.90
2022-11-07T13:37:29.975Z,12.25
2022-11-07T13:40:03.673Z,10.88
2022-11-07T13:42:33.440Z,10.50
2022-11-07T13:45:24.641Z,10.52
2022-11-07T13:47:54.721Z,10.02
2022-11-07T13:53:06.872Z,9.98
2022-11-07T13:55:48.328Z,10.27
2022-11-07T13:58:17.495Z,11.05
2022-11-07T14:00:45.631Z,12.60
2022-11-07T14:03:24.820Z,12.77
2022-11-07T14:05:51.909Z,11.75
2022-11-07T14:08:23.791Z,11.40
2022-11-07T14:10:52.819Z,11.50
2022-11-07T14:13:38.238Z,11.70
2022-11-07T14:16:21.487Z,10.00
2022-11-07T14:19:13.934Z,10.15
2022-11-07T14:21:45.349Z,10.18
2022-11-07T14:24:28.759Z,10.27
2022-11-07T14:27:11.485Z,9.38
2022-11-07T14:29:38.334Z,8.85
2022-11-07T14:32:07.267Z,9.68
2022-11-07T14:34:44.328Z,9.57
2022-11-07T14:37:17.272Z,9.93
2022-11-07T14:39:44.562Z,9.60
2022-11-07T14:42:19.248Z,9.02
2022-11-07T14:44:55.662Z,9.05
2022-11-07T14:47:33.995Z,8.98
2022-11-07T14:50:02.497Z,8.85
2022-11-07T14:52:43.383Z,8.80
2022-11-07T14:55:20.833Z,8.98
2022-11-07T14:57:48.211Z,9.70
2022-11-07T15:00:17.934Z,8.82
2022-11-07T15:02:48.289Z,9.30
2022-11-07T15:05:24.106Z,9.15
2022-11-07T15:07:51.165Z,8.93
2022-11-07T15:10:41.602Z,9.32
2022-11-07T15:13:26.265Z,9.35
2022-11-07T15:16:05.811Z,9.45
2022-11-07T15:18:38.994Z,8.68
2022-11-07T15:21:06.495Z,9.55
2022-11-07T15:23:34.674Z,9.60
2022-11-07T15:26:07.469Z,9.43
2022-11-07T15:28:54.014Z,9.30
2022-11-07T15:31:30.688Z,9.05
2022-11-07T15:33:59.298Z,9.30
2022-11-07T15:36:26.113Z,9.55
2022-11-07T15:38:54.092Z,9.65
2022-11-07T15:41:21.253Z,9.55
2022-11-07T15:43:48.085Z,9.88
2022-11-07T15:46:28.327Z,9.90
2022-11-07T15:48:55.258Z,9.45
2022-11-07T15:51:22.190Z,9.40
2022-11-07T15:53:48.934Z,10.13
2022-11-07T15:56:19.383Z,10.23
2022-11-07T15:58:46.298Z,9.65
2022-11-07T16:01:14.128Z,9.15
2022-11-07T16:03:41.223Z,9.68
2022-11-07T16:06:35.573Z,9.88
2022-11-07T16:09:04.827Z,9.52
2022-11-07T16:11:31.534Z,9.70
2022-11-07T16:14:29.386Z,9.43
2022-11-07T16:16:50.802Z,9.18
2022-11-07T16:19:21.843Z,9.10
2022-11-07T16:21:48.551Z,8.98
2022-11-07T16:24:16.517Z,9.52
2022-11-07T16:26:46.184Z,9.48
2022-11-07T16:29:13.823Z,8.65
2022-11-07T16:31:40.572Z,9.02
2022-11-07T16:34:08.802Z,8.70
2022-11-07T16:36:36.447Z,8.55
2022-11-07T16:39:05.471Z,9.18
2022-11-07T16:41:32.899Z,8.90
2022-11-07T16:44:00.292Z,8.73
2022-11-07T16:46:28.569Z,9.18
2022-11-07T16:49:03.435Z,8.65
2022-11-07T16:51:30.110Z,8.82
2022-11-07T16:53:56.713Z,9.07
2022-11-07T16:56:32.019Z,9.05
2022-11-07T16:58:59.473Z,9.77
2022-11-07T17:01:27.890Z,8.75
2022-11-07T17:03:54.987Z,9.20
2022-11-07T17:06:32.230Z,8.73
2022-11-07T17:09:06.133Z,7.95
2022-11-07T17:11:37.752Z,8.40
2022-11-07T17:14:04.642Z,9.02
2022-11-07T17:16:35.536Z,8.50
2022-11-07T17:19:03.924Z,8.50
2022-11-07T17:21:35.656Z,8.70
2022-11-07T17:24:02.912Z,8.32
2022-11-07T17:26:35.723Z,8.48
2022-11-07T17:29:04.456Z,7.70
2022-11-07T17:31:31.083Z,8.00
2022-11-07T17:33:57.949Z,8.02
2022-11-07T17:36:37.439Z,7.88
2022-11-07T17:39:11.536Z,7.45
2022-11-07T17:41:40.750Z,7.88
2022-11-07T17:44:07.983Z,8.15
2022-11-07T17:46:36.401Z,7.75
2022-11-07T17:49:08.946Z,7.72
2022-11-07T17:51:36.059Z,8.75
2022-11-07T17:54:03.294Z,8.02
2022-11-07T17:56:34.661Z,7.80
2022-11-07T17:59:06.170Z,7.95
2022-11-07T18:01:38.340Z,8.38
2022-11-07T18:04:09.764Z,8.32
2022-11-07T18:06:38.914Z,8.05
2022-11-07T18:09:07.331Z,7.95
2022-11-07T18:11:38.123Z,8.60
2022-11-07T18:14:07.937Z,8.70
2022-11-07T18:16:37.326Z,8.57
2022-11-07T18:19:06.787Z,8.68
2022-11-07T18:21:36.460Z,9.05
2022-11-07T18:24:03.309Z,8.93
2022-11-07T18:26:31.191Z,8.90
2022-11-07T18:29:02.031Z,8.93
2022-11-07T18:31:31.643Z,9.15
2022-11-07T18:34:00.523Z,9.02
2022-11-07T18:36:28.340Z,8.82
2022-11-07T18:38:55.036Z,9.40
2022-11-07T18:41:23.702Z,9.55
2022-11-07T18:43:50.791Z,9.63
2022-11-07T18:46:22.084Z,10.07
2022-11-07T18:48:50.707Z,9.95
2022-11-07T18:51:21.061Z,10.13
2022-11-07T18:53:48.912Z,9.65
2022-11-07T18:56:16.121Z,9.90
2022-11-07T18:58:44.240Z,10.52
2022-11-07T19:01:19.424Z,10.05
2022-11-07T19:03:46.899Z,10.45
2022-11-07T19:06:18.178Z,10.20
2022-11-07T19:08:47.302Z,10.45
2022-11-07T19:11:16.947Z,10.77
2022-11-07T19:13:47.897Z,10.30
2022-11-07T19:16:17.350Z,9.85
2022-11-07T19:18:49.400Z,10.23
2022-11-07T19:21:20.971Z,10.55
2022-11-07T19:23:51.659Z,10.70
2022-11-07T19:29:01.138Z,10.32
2022-11-07T19:34:01.814Z,9.95
2022-11-07T19:36:28.759Z,10.63
2022-11-07T19:38:58.440Z,10.32
2022-11-07T19:41:26.071Z,10.95
2022-11-07T19:43:53.996Z,10.85
2022-11-07T19:46:22.959Z,11.50
2022-11-07T19:48:50.979Z,11.25
2022-11-07T19:51:36.657Z,10.85
2022-11-07T19:54:04.314Z,11.00
2022-11-07T19:56:32.002Z,10.90
2022-11-07T19:59:01.348Z,10.85
2022-11-07T20:01:33.319Z,11.73
2022-11-07T20:04:03.235Z,11.52
2022-11-07T20:09:36.639Z,11.57
2022-11-07T20:12:53.430Z,11.43
2022-11-07T20:15:32.514Z,11.20
2022-11-07T20:17:59.658Z,11.40
2022-11-07T20:20:33.178Z,11.43
2022-11-07T20:23:03.223Z,11.85
2022-11-07T20:25:30.198Z,11.85
2022-11-07T20:27:59.219Z,11.82
2022-11-07T20:30:26.107Z,11.38
2022-11-07T20:32:58.498Z,11.63
2022-11-07T20:35:25.314Z,11.65
2022-11-07T20:37:52.725Z,11.80
2022-11-07T20:40:26.461Z,11.60
2022-11-07T20:43:03.121Z,11.43
2022-11-07T20:45:48.739Z,11.48
2022-11-07T20:48:16.321Z,10.75
2022-11-07T20:50:43.416Z,10.35
2022-11-07T20:53:12.460Z,10.90
2022-11-07T20:55:43.358Z,10.60
2022-11-07T20:58:11.357Z,10.68
2022-11-07T21:00:40.608Z,10.73
2022-11-07T21:03:15.176Z,10.48
2022-11-07T21:06:21.809Z,10.32
2022-11-07T21:08:50.344Z,10.48
2022-11-07T21:11:20.018Z,10.35
2022-11-07T21:13:52.744Z,10.57
2022-11-07T21:16:21.679Z,10.77
2022-11-07T21:18:49.213Z,10.52
2022-11-07T21:21:20.381Z,10.45
2022-11-07T21:23:51.708Z,9.82
2022-11-07T21:26:39.367Z,10.93
2022-11-07T21:29:08.359Z,10.15
2022-11-07T21:31:39.461Z,10.60
2022-11-07T21:35:17.498Z,10.32
2022-11-07T21:37:46.178Z,9.73
2022-11-07T21:40:13.084Z,9.68
2022-11-07T21:42:39.804Z,9.70
2022-11-07T21:45:07.096Z,9.63
2022-11-07T21:47:33.855Z,9.23
2022-11-07T21:50:00.882Z,9.43
2022-11-07T21:52:30.596Z,8.88
2022-11-07T21:54:57.193Z,9.32
2022-11-07T21:57:23.828Z,9.25
2022-11-07T21:59:50.456Z,9.20
2022-11-07T22:02:17.143Z,9.15
2022-11-07T22:04:43.973Z,8.77
2022-11-07T22:07:10.688Z,9.18
2022-11-07T22:09:37.524Z,8.98
2022-11-07T22:12:04.467Z,8.50
2022-11-07T22:14:31.127Z,8.30
2022-11-07T22:16:57.839Z,8.30
2022-11-07T22:19:25.673Z,8.75
2022-11-07T22:21:52.396Z,9.02
2022-11-07T22:24:19.797Z,8.25
2022-11-07T22:26:46.640Z,8.25
2022-11-07T22:29:13.348Z,7.82
2022-11-07T22:31:39.975Z,7.90
2022-11-07T22:34:06.658Z,7.97
2022-11-07T22:36:33.370Z,8.07
2022-11-07T22:39:00.176Z,8.15
2022-11-07T22:41:27.915Z,8.07
2022-11-07T22:43:55.370Z,7.90
2022-11-07T22:46:27.350Z,7.80
2022-11-07T22:48:55.374Z,7.90
2022-11-07T22:51:33.214Z,8.68
2022-11-07T22:54:02.701Z,7.85
2022-11-07T22:56:29.999Z,8.27
2022-11-07T22:58:56.716Z,8.38
2022-11-07T23:01:28.185Z,8.38
2022-11-07T23:03:56.733Z,8.90
2022-11-07T23:06:24.343Z,8.18
2022-11-07T23:08:52.879Z,8.38
2022-11-07T23:14:12.306Z,9.00
2022-11-07T23:16:43.536Z,9.25
2022-11-07T23:19:12.748Z,9.07
2022-11-07T23:21:39.732Z,9.30
2022-11-07T23:24:06.852Z,9.45
2022-11-07T23:26:34.313Z,10.02
2022-11-07T23:29:11.632Z,9.75
2022-11-07T23:31:43.614Z,9.80
2022-11-07T23:34:10.944Z,10.02
2022-11-07T23:36:40.663Z,10.25
2022-11-07T23:39:08.651Z,10.45
2022-11-07T23:41:35.338Z,10.25
2022-11-07T23:44:02.577Z,10.05
2022-11-07T23:46:48.662Z,10.38
2022-11-07T23:49:33.994Z,10.20
2022-11-07T23:52:00.735Z,10.18
2022-11-07T23:54:46.086Z,9.95
2022-11-07T23:57:12.754Z,11.13
2022-11-07T23:59:58.214Z,10.63
